Oka, Canada
Current Conditions -  °F | °C
As of 8:00 PM on Sunday 23 Nov 2014 (Local Time) from CYMX Reporting Station
Moderate Fog Moderate Fog  
Wind Chill: 32°   Ceiling: 100
Heat Index: 36°   Visibility: 0.25mi
Dew Point: 36°   Wind: 5mph
Humidity: 100%   Direction: 20°NNE
Pressure: 30"   Gusts: NA
Location:  45.47°N, 74.08°W
Report Text: CYMX 240100Z 02004KT 1/4SM R24/1200FT/N FG VV001 02/02 A3000 RMK FG8 SLP162
Loading
Personal Weather Stations






























Interactive Weather Map New forecast layout! Learn more

10-Day Weather Forecast

Advertisements
Track Severe Weather on mobile